• Join FlightAware (Why Join?)
  • Login
  • US Flag 
08:41AM EDT


 

Airport Tracker/Info


-or-


 

Live Flight TrackerFlight Track Log ✈ OPT452 ✈ 17-Apr-2013 ✈ KBCT - KJAX

Flight Track Log - Related Links

Times and Time Zones

All times are in EDT time to prevent confusion due to time zone crossing. See the OPT452 flight status page for this flight to view local times or setup timezone preferences in your user account.

Time Position Orientation Groundspeed Altitude Reporting Facility
EDT Latitude Longitude Course Direction KTS MPH feet Rate Location/Type
05:39PM 26.4889 -80.1181 351° North 233 268 5,300  Level Miami Center
05:40PM 26.5503 -80.1800 318° Northwest 286 329 7,700 2,340 Climbing Miami Center
05:41PM 26.5631 -80.2525 281° West 294 338 10,000 1,140 Climbing Miami Center
05:42PM 26.5778 -80.3342 281° West 292 336 10,000 360 Level Miami Center
05:43PM 26.5981 -80.4486 281° West 327 376 10,800 1,500 Climbing Miami Center
05:44PM 26.6167 -80.5419 283° West 344 396 13,100 2,580 Climbing Miami Center
05:45PM 26.6792 -80.6300 308° West 326 375 16,000 2,400 Climbing Miami Center
05:46PM 26.7361 -80.6900 317° Northwest 311 358 18,000 1,800 Climbing Miami Center
05:47PM 26.8186 -80.7253 339° North 305 351 19,700 1,680 Climbing Miami Center
05:48PM 26.9056 -80.7536 344° North 311 358 21,400 1,620 Climbing Miami Center
05:49PM 26.9944 -80.7847 343° North 330 380 23,000 1,560 Climbing Miami Center
05:50PM 27.0897 -80.8181 343° North 343 395 24,600 1,500 Climbing Miami Center
05:51PM 27.1847 -80.8517 343° North 348 400 26,100 1,200 Climbing Miami Center
05:52PM 27.2819 -80.8856 343° North 358 412 27,000 420 Climbing Miami Center
05:53PM 27.4000 -80.9247 344° North 378 435 27,000  Level Miami Center
05:54PM 27.5072 -80.9636 342° North 398 458 27,000  Level Miami Center
05:55PM 27.6147 -81.0003 343° North 398 458 27,000  Level Miami Center
05:56PM 27.7058 -81.0317 343° North 391 450 27,000  Level Miami Center
05:57PM 27.8008 -81.0656 342° North 374 430 27,000  Level Miami Center
05:58PM 27.8956 -81.1044 340° North 363 418 27,000  Level Miami Center
05:59PM 27.9989 -81.1389 344° North 358 412 27,000  Level Miami Center
06:00PM 28.0919 -81.1731 342° North 358 412 27,000  Level Miami Center
06:01PM 28.1847 -81.2072 342° North 358 412 27,000  Level Miami Center
06:02PM 28.2672 -81.2361 343° North 347 399 27,000  Level Miami Center
06:04PM 28.4428 -81.3014 342° North 340 391 27,000  Level Jacksonville Center
06:05PM 28.5369 -81.3331 344° North 345 397 27,000 -420 Level Jacksonville Center
06:06PM 28.6353 -81.3456 354° North 345 397 26,200 -960 Descending Jacksonville Center
06:07PM 28.7439 -81.3558 355° North 369 425 25,100 -1,080 Descending Jacksonville Center
06:08PM 28.8525 -81.3683 354° North 382 440 24,100 -1,020 Descending Jacksonville Center
06:09PM 28.9633 -81.3786 355° North 388 447 23,100 -1,080 Descending Jacksonville Center
06:10PM 29.0697 -81.3911 354° North 388 447 22,000 -1,080 Descending Jacksonville Center
06:11PM 29.1764 -81.3992 356° North 388 447 21,000 -1,320 Descending Jacksonville Center
06:12PM 29.2831 -81.4142 353° North 388 447 19,400 -1,680 Descending Jacksonville Center
06:12PM 29.3311 -81.4158 358° North 385 443 18,700 -1,500 Descending Jacksonville Center
06:13PM 29.3939 -81.4244 353° North 388 447 17,900 -1,560 Descending Jacksonville Center
06:14PM 29.4461 -81.4306 354° North 392 451 17,000 -1,740 Descending Jacksonville Center
06:14PM 29.4983 -81.4347 356° North 388 447 16,200 -1,560 Descending Jacksonville Center
06:14PM 29.5400 -81.4389 355° North 369 425 15,600 -1,440 Descending Jacksonville Center
06:16PM 29.6325 -81.4947 332° Northwest 337 388 14,000 -1,440 Descending Jacksonville Center
06:16PM 29.6622 -81.5303 314° West 329 379 13,400 -1,020 Descending Jacksonville Center
06:17PM 29.7003 -81.5703 318° Northwest 332 382 13,000 -420 Descending Jacksonville Center
06:17PM 29.7256 -81.6036 311° West 329 379 13,000 -300 Level Jacksonville Center
06:18PM 29.7675 -81.6317 330° Northwest 312 359 12,700 -840 Descending Jacksonville Center
06:18PM 29.8011 -81.6503 334° Northwest 323 372 12,200 -1,380 Descending Jacksonville Center
06:19PM 29.8431 -81.6714 336° Northwest 316 364 11,500 -1,200 Descending Jacksonville Center
06:19PM 29.8808 -81.6947 332° Northwest 311 358 11,000 -1,200 Descending Jacksonville Center
06:20PM 29.9292 -81.7206 335° Northwest 314 361 10,200 -1,320 Descending Jacksonville Center
06:20PM 29.9586 -81.7394 331° Northwest 311 358 9,700 -1,200 Descending Jacksonville Center
06:21PM 29.9922 -81.7606 331° Northwest 302 348 9,100 -1,200 Descending Jacksonville Center
06:21PM 30.0300 -81.7794 337° Northwest 299 344 8,500 -1,320 Descending Jacksonville Center
06:22PM 30.0719 -81.8028 334° Northwest 287 330 7,800 -1,500 Descending Jacksonville Center
06:23PM 30.1536 -81.8475 335° Northwest 265 305 5,900 -1,560 Descending Jacksonville Center
06:24PM 30.2164 -81.8567 353° North 251 289 4,500 -1,500 Descending Jacksonville Center
06:25PM 30.2831 -81.8533 North 238 274 3,100 -1,080 Descending Jacksonville Center
06:26PM 30.3353 -81.8553 358° North 230 265 2,600 -600 Descending Jacksonville Center
06:27PM 30.3936 -81.8331 18° North 218 251 2,000 -300 Descending Jacksonville Center
06:28PM 30.4478 -81.8106 20° North 206 237 2,000 -360 Level Jacksonville Center
06:29PM 30.4744 -81.7644 56° Northeast 180 207 1,300 -780 Descending Jacksonville Center
06:30PM 30.4867 -81.7211 72° East 121 139 500 -840 Descending Jacksonville Center
06:32PM 30.4833 -81.6833 44° Northeast  Level FlightAware Approximate
06:39PM 30.4941 -81.6879 44° Northeast  Level Estimated